sensor_id;sensor_type;location;lat;lon;timestamp;P1;durP1;ratioP1;P2;durP2;ratioP2
18780;SDS011;9519;51.890;8.970;2023-04-26T00:05:00;10.97;;;4.60;;
18780;SDS011;9519;51.890;8.970;2023-04-26T00:10:04;10.83;;;4.13;;
18780;SDS011;9519;51.890;8.970;2023-04-26T00:15:10;12.27;;;4.27;;
18780;SDS011;9519;51.890;8.970;2023-04-26T00:20:12;13.40;;;4.80;;
18780;SDS011;9519;51.890;8.970;2023-04-26T00:25:16;10.90;;;4.90;;
18780;SDS011;9519;51.890;8.970;2023-04-26T00:30:18;9.93;;;4.60;;
18780;SDS011;9519;51.890;8.970;2023-04-26T00:35:20;10.77;;;4.63;;
18780;SDS011;9519;51.890;8.970;2023-04-26T00:40:24;9.50;;;4.77;;
18780;SDS011;9519;51.890;8.970;2023-04-26T00:45:26;16.03;;;4.67;;
18780;SDS011;9519;51.890;8.970;2023-04-26T00:50:31;16.17;;;4.53;;
18780;SDS011;9519;51.890;8.970;2023-04-26T00:55:35;12.80;;;5.13;;
18780;SDS011;9519;51.890;8.970;2023-04-26T01:00:38;10.87;;;5.10;;
18780;SDS011;9519;51.890;8.970;2023-04-26T01:05:40;10.83;;;5.60;;
18780;SDS011;9519;51.890;8.970;2023-04-26T01:10:43;11.73;;;5.23;;
18780;SDS011;9519;51.890;8.970;2023-04-26T01:15:46;10.10;;;5.17;;
18780;SDS011;9519;51.890;8.970;2023-04-26T01:20:49;12.37;;;5.27;;
18780;SDS011;9519;51.890;8.970;2023-04-26T01:25:53;12.17;;;6.57;;
18780;SDS011;9519;51.890;8.970;2023-04-26T01:30:56;12.73;;;5.73;;
18780;SDS011;9519;51.890;8.970;2023-04-26T01:35:58;9.80;;;4.80;;
18780;SDS011;9519;51.890;8.970;2023-04-26T01:41:01;17.07;;;5.53;;
18780;SDS011;9519;51.890;8.970;2023-04-26T01:46:03;10.83;;;4.93;;
18780;SDS011;9519;51.890;8.970;2023-04-26T01:51:06;12.03;;;5.10;;
18780;SDS011;9519;51.890;8.970;2023-04-26T01:56:09;12.27;;;5.47;;
18780;SDS011;9519;51.890;8.970;2023-04-26T02:01:11;14.57;;;5.63;;
18780;SDS011;9519;51.890;8.970;2023-04-26T02:06:13;13.57;;;5.13;;
18780;SDS011;9519;51.890;8.970;2023-04-26T02:11:17;12.20;;;4.93;;
18780;SDS011;9519;51.890;8.970;2023-04-26T02:16:19;14.93;;;5.37;;
18780;SDS011;9519;51.890;8.970;2023-04-26T02:21:21;11.70;;;4.63;;
18780;SDS011;9519;51.890;8.970;2023-04-26T02:26:25;13.80;;;5.13;;
18780;SDS011;9519;51.890;8.970;2023-04-26T02:31:27;13.23;;;5.10;;
18780;SDS011;9519;51.890;8.970;2023-04-26T02:36:29;11.23;;;4.70;;
18780;SDS011;9519;51.890;8.970;2023-04-26T02:41:33;15.27;;;5.00;;
18780;SDS011;9519;51.890;8.970;2023-04-26T02:46:35;12.70;;;4.73;;
18780;SDS011;9519;51.890;8.970;2023-04-26T02:51:37;15.97;;;5.10;;
18780;SDS011;9519;51.890;8.970;2023-04-26T02:56:41;11.60;;;5.07;;
18780;SDS011;9519;51.890;8.970;2023-04-26T03:01:43;13.80;;;5.27;;
18780;SDS011;9519;51.890;8.970;2023-04-26T03:06:45;13.47;;;5.93;;
18780;SDS011;9519;51.890;8.970;2023-04-26T03:11:49;20.17;;;6.77;;
18780;SDS011;9519;51.890;8.970;2023-04-26T03:16:52;17.13;;;6.47;;
18780;SDS011;9519;51.890;8.970;2023-04-26T03:21:54;15.07;;;5.73;;
18780;SDS011;9519;51.890;8.970;2023-04-26T03:26:58;14.23;;;5.97;;
18780;SDS011;9519;51.890;8.970;2023-04-26T03:32:00;16.00;;;6.40;;
18780;SDS011;9519;51.890;8.970;2023-04-26T03:37:02;17.37;;;6.40;;
18780;SDS011;9519;51.890;8.970;2023-04-26T03:42:05;16.50;;;6.73;;
18780;SDS011;9519;51.890;8.970;2023-04-26T03:47:08;11.23;;;6.23;;
18780;SDS011;9519;51.890;8.970;2023-04-26T03:52:10;18.63;;;6.70;;
18780;SDS011;9519;51.890;8.970;2023-04-26T03:57:14;17.80;;;6.87;;
18780;SDS011;9519;51.890;8.970;2023-04-26T04:02:16;17.57;;;7.80;;
18780;SDS011;9519;51.890;8.970;2023-04-26T04:07:20;17.00;;;8.03;;
18780;SDS011;9519;51.890;8.970;2023-04-26T04:12:24;17.97;;;7.40;;
18780;SDS011;9519;51.890;8.970;2023-04-26T04:17:26;13.80;;;7.40;;
18780;SDS011;9519;51.890;8.970;2023-04-26T04:22:28;14.67;;;6.87;;
18780;SDS011;9519;51.890;8.970;2023-04-26T04:27:32;17.13;;;8.30;;
18780;SDS011;9519;51.890;8.970;2023-04-26T04:32:34;16.70;;;8.17;;
18780;SDS011;9519;51.890;8.970;2023-04-26T04:37:38;17.40;;;7.73;;
18780;SDS011;9519;51.890;8.970;2023-04-26T04:42:42;19.97;;;8.77;;
18780;SDS011;9519;51.890;8.970;2023-04-26T04:47:45;17.90;;;8.23;;
18780;SDS011;9519;51.890;8.970;2023-04-26T04:52:47;18.37;;;8.17;;
18780;SDS011;9519;51.890;8.970;2023-04-26T04:57:51;11.80;;;7.57;;
18780;SDS011;9519;51.890;8.970;2023-04-26T05:02:53;17.17;;;8.07;;
18780;SDS011;9519;51.890;8.970;2023-04-26T05:07:56;17.07;;;8.07;;
18780;SDS011;9519;51.890;8.970;2023-04-26T05:12:59;15.93;;;8.03;;
18780;SDS011;9519;51.890;8.970;2023-04-26T05:18:02;20.60;;;9.27;;
18780;SDS011;9519;51.890;8.970;2023-04-26T05:23:04;20.70;;;9.50;;
18780;SDS011;9519;51.890;8.970;2023-04-26T05:28:08;16.57;;;9.77;;
18780;SDS011;9519;51.890;8.970;2023-04-26T05:33:11;19.10;;;9.17;;
18780;SDS011;9519;51.890;8.970;2023-04-26T05:38:14;18.53;;;8.80;;
18780;SDS011;9519;51.890;8.970;2023-04-26T05:43:18;24.60;;;9.87;;
18780;SDS011;9519;51.890;8.970;2023-04-26T05:48:20;18.60;;;8.77;;
18780;SDS011;9519;51.890;8.970;2023-04-26T05:53:23;19.80;;;8.33;;
18780;SDS011;9519;51.890;8.970;2023-04-26T05:58:27;15.33;;;7.23;;
18780;SDS011;9519;51.890;8.970;2023-04-26T06:03:29;15.20;;;7.40;;
18780;SDS011;9519;51.890;8.970;2023-04-26T06:08:31;16.47;;;7.93;;
18780;SDS011;9519;51.890;8.970;2023-04-26T06:13:34;18.77;;;8.40;;
18780;SDS011;9519;51.890;8.970;2023-04-26T06:18:36;14.50;;;7.90;;
18780;SDS011;9519;51.890;8.970;2023-04-26T06:23:39;15.70;;;7.50;;
18780;SDS011;9519;51.890;8.970;2023-04-26T06:28:42;17.30;;;7.93;;
18780;SDS011;9519;51.890;8.970;2023-04-26T06:33:44;16.27;;;6.57;;
18780;SDS011;9519;51.890;8.970;2023-04-26T06:38:46;13.30;;;6.53;;
18780;SDS011;9519;51.890;8.970;2023-04-26T06:43:50;17.43;;;7.07;;
18780;SDS011;9519;51.890;8.970;2023-04-26T06:48:52;15.53;;;6.80;;
18780;SDS011;9519;51.890;8.970;2023-04-26T06:53:55;13.83;;;6.53;;
18780;SDS011;9519;51.890;8.970;2023-04-26T06:58:59;14.20;;;5.80;;
18780;SDS011;9519;51.890;8.970;2023-04-26T07:04:04;13.43;;;5.97;;
18780;SDS011;9519;51.890;8.970;2023-04-26T07:09:09;12.60;;;5.20;;
18780;SDS011;9519;51.890;8.970;2023-04-26T07:14:12;14.93;;;6.00;;
18780;SDS011;9519;51.890;8.970;2023-04-26T07:19:15;12.93;;;6.13;;
18780;SDS011;9519;51.890;8.970;2023-04-26T07:24:17;17.90;;;5.40;;
18780;SDS011;9519;51.890;8.970;2023-04-26T07:29:20;13.03;;;6.07;;
18780;SDS011;9519;51.890;8.970;2023-04-26T07:34:22;12.83;;;5.30;;
18780;SDS011;9519;51.890;8.970;2023-04-26T07:39:26;9.53;;;5.10;;
18780;SDS011;9519;51.890;8.970;2023-04-26T07:44:29;13.57;;;4.77;;
18780;SDS011;9519;51.890;8.970;2023-04-26T07:49:35;15.70;;;5.10;;
18780;SDS011;9519;51.890;8.970;2023-04-26T07:54:37;12.13;;;4.37;;
18780;SDS011;9519;51.890;8.970;2023-04-26T07:59:41;14.03;;;5.40;;
18780;SDS011;9519;51.890;8.970;2023-04-26T08:04:46;10.43;;;4.10;;
18780;SDS011;9519;51.890;8.970;2023-04-26T08:09:51;13.73;;;4.80;;
18780;SDS011;9519;51.890;8.970;2023-04-26T08:14:54;10.93;;;4.00;;
18780;SDS011;9519;51.890;8.970;2023-04-26T08:19:56;13.40;;;4.43;;
18780;SDS011;9519;51.890;8.970;2023-04-26T08:24:58;10.83;;;4.60;;
18780;SDS011;9519;51.890;8.970;2023-04-26T08:30:02;10.07;;;3.73;;
18780;SDS011;9519;51.890;8.970;2023-04-26T08:35:06;12.87;;;3.43;;
18780;SDS011;9519;51.890;8.970;2023-04-26T08:40:09;12.93;;;4.33;;
18780;SDS011;9519;51.890;8.970;2023-04-26T08:45:13;10.73;;;3.67;;
18780;SDS011;9519;51.890;8.970;2023-04-26T08:50:18;8.13;;;3.20;;
18780;SDS011;9519;51.890;8.970;2023-04-26T08:55:22;11.03;;;4.10;;
18780;SDS011;9519;51.890;8.970;2023-04-26T09:00:27;9.20;;;3.87;;
18780;SDS011;9519;51.890;8.970;2023-04-26T09:05:30;10.40;;;3.63;;
18780;SDS011;9519;51.890;8.970;2023-04-26T09:10:34;10.03;;;3.70;;
18780;SDS011;9519;51.890;8.970;2023-04-26T09:15:38;9.50;;;3.00;;
18780;SDS011;9519;51.890;8.970;2023-04-26T09:20:42;8.40;;;3.07;;
18780;SDS011;9519;51.890;8.970;2023-04-26T09:25:46;6.90;;;2.47;;
18780;SDS011;9519;51.890;8.970;2023-04-26T09:30:50;11.73;;;4.27;;
18780;SDS011;9519;51.890;8.970;2023-04-26T09:35:52;6.53;;;2.90;;
18780;SDS011;9519;51.890;8.970;2023-04-26T09:40:54;6.57;;;2.80;;
18780;SDS011;9519;51.890;8.970;2023-04-26T09:45:59;8.37;;;2.27;;
18780;SDS011;9519;51.890;8.970;2023-04-26T09:51:07;7.40;;;2.93;;
18780;SDS011;9519;51.890;8.970;2023-04-26T09:56:12;9.57;;;2.67;;
18780;SDS011;9519;51.890;8.970;2023-04-26T10:01:19;9.83;;;3.10;;
18780;SDS011;9519;51.890;8.970;2023-04-26T10:06:22;7.57;;;2.60;;
18780;SDS011;9519;51.890;8.970;2023-04-26T10:11:24;8.17;;;2.67;;
18780;SDS011;9519;51.890;8.970;2023-04-26T10:16:29;8.57;;;2.63;;
18780;SDS011;9519;51.890;8.970;2023-04-26T10:21:32;9.03;;;2.83;;
18780;SDS011;9519;51.890;8.970;2023-04-26T10:26:48;7.97;;;2.70;;
18780;SDS011;9519;51.890;8.970;2023-04-26T10:32:07;9.50;;;2.87;;
18780;SDS011;9519;51.890;8.970;2023-04-26T10:37:11;9.87;;;3.07;;
18780;SDS011;9519;51.890;8.970;2023-04-26T10:42:19;7.07;;;2.70;;
18780;SDS011;9519;51.890;8.970;2023-04-26T10:47:26;7.57;;;2.80;;
18780;SDS011;9519;51.890;8.970;2023-04-26T10:52:31;8.70;;;3.03;;
18780;SDS011;9519;51.890;8.970;2023-04-26T10:57:49;12.93;;;3.37;;
18780;SDS011;9519;51.890;8.970;2023-04-26T11:02:56;10.03;;;3.80;;
18780;SDS011;9519;51.890;8.970;2023-04-26T11:08:13;9.87;;;3.63;;
18780;SDS011;9519;51.890;8.970;2023-04-26T11:13:17;10.53;;;3.37;;
18780;SDS011;9519;51.890;8.970;2023-04-26T11:18:22;9.20;;;3.20;;
18780;SDS011;9519;51.890;8.970;2023-04-26T11:23:24;6.60;;;3.10;;
18780;SDS011;9519;51.890;8.970;2023-04-26T11:28:29;9.53;;;2.80;;
18780;SDS011;9519;51.890;8.970;2023-04-26T11:33:33;7.90;;;3.07;;
18780;SDS011;9519;51.890;8.970;2023-04-26T11:38:36;7.90;;;3.07;;
18780;SDS011;9519;51.890;8.970;2023-04-26T11:43:39;10.93;;;3.60;;
18780;SDS011;9519;51.890;8.970;2023-04-26T11:48:45;10.03;;;3.03;;
18780;SDS011;9519;51.890;8.970;2023-04-26T11:53:47;6.37;;;2.70;;
18780;SDS011;9519;51.890;8.970;2023-04-26T11:58:51;7.50;;;2.80;;
18780;SDS011;9519;51.890;8.970;2023-04-26T12:03:56;6.90;;;3.00;;
18780;SDS011;9519;51.890;8.970;2023-04-26T12:09:00;7.40;;;3.13;;
18780;SDS011;9519;51.890;8.970;2023-04-26T12:14:04;11.47;;;3.43;;
18780;SDS011;9519;51.890;8.970;2023-04-26T12:19:08;8.23;;;2.97;;
18780;SDS011;9519;51.890;8.970;2023-04-26T12:24:20;7.03;;;3.07;;
18780;SDS011;9519;51.890;8.970;2023-04-26T12:29:28;9.53;;;3.13;;
18780;SDS011;9519;51.890;8.970;2023-04-26T12:34:32;10.20;;;3.03;;
18780;SDS011;9519;51.890;8.970;2023-04-26T12:39:36;8.73;;;2.90;;
18780;SDS011;9519;51.890;8.970;2023-04-26T12:44:41;6.10;;;2.73;;
18780;SDS011;9519;51.890;8.970;2023-04-26T12:49:44;6.47;;;3.17;;
18780;SDS011;9519;51.890;8.970;2023-04-26T12:54:47;9.67;;;2.97;;
18780;SDS011;9519;51.890;8.970;2023-04-26T12:59:49;11.20;;;3.10;;
18780;SDS011;9519;51.890;8.970;2023-04-26T13:04:53;6.07;;;2.90;;
18780;SDS011;9519;51.890;8.970;2023-04-26T13:09:55;5.63;;;2.60;;
18780;SDS011;9519;51.890;8.970;2023-04-26T13:14:58;6.53;;;2.90;;
18780;SDS011;9519;51.890;8.970;2023-04-26T13:20:01;9.30;;;3.00;;
18780;SDS011;9519;51.890;8.970;2023-04-26T13:25:05;6.70;;;2.60;;
18780;SDS011;9519;51.890;8.970;2023-04-26T13:30:08;7.00;;;2.60;;
18780;SDS011;9519;51.890;8.970;2023-04-26T13:35:15;7.90;;;2.80;;
18780;SDS011;9519;51.890;8.970;2023-04-26T13:40:18;9.53;;;3.00;;
18780;SDS011;9519;51.890;8.970;2023-04-26T13:45:21;7.87;;;2.90;;
18780;SDS011;9519;51.890;8.970;2023-04-26T13:50:25;10.10;;;3.23;;
18780;SDS011;9519;51.890;8.970;2023-04-26T13:55:27;6.67;;;2.80;;
18780;SDS011;9519;51.890;8.970;2023-04-26T14:00:29;5.20;;;2.70;;
18780;SDS011;9519;51.890;8.970;2023-04-26T14:05:33;8.97;;;2.53;;
18780;SDS011;9519;51.890;8.970;2023-04-26T14:10:35;6.63;;;2.40;;
18780;SDS011;9519;51.890;8.970;2023-04-26T14:15:37;7.93;;;3.07;;
18780;SDS011;9519;51.890;8.970;2023-04-26T14:20:42;5.13;;;2.40;;
18780;SDS011;9519;51.890;8.970;2023-04-26T14:25:44;7.27;;;2.97;;
18780;SDS011;9519;51.890;8.970;2023-04-26T14:30:46;7.20;;;3.13;;
18780;SDS011;9519;51.890;8.970;2023-04-26T14:35:50;4.87;;;2.80;;
18780;SDS011;9519;51.890;8.970;2023-04-26T14:40:52;9.20;;;2.50;;
18780;SDS011;9519;51.890;8.970;2023-04-26T14:45:54;7.03;;;2.70;;
18780;SDS011;9519;51.890;8.970;2023-04-26T14:51:00;5.03;;;2.20;;
18780;SDS011;9519;51.890;8.970;2023-04-26T14:56:03;8.73;;;2.77;;
18780;SDS011;9519;51.890;8.970;2023-04-26T15:01:06;6.30;;;2.50;;
18780;SDS011;9519;51.890;8.970;2023-04-26T15:06:10;6.47;;;2.93;;
18780;SDS011;9519;51.890;8.970;2023-04-26T15:11:14;7.33;;;2.90;;
18780;SDS011;9519;51.890;8.970;2023-04-26T15:16:16;6.60;;;2.20;;
18780;SDS011;9519;51.890;8.970;2023-04-26T15:21:20;6.03;;;2.37;;
18780;SDS011;9519;51.890;8.970;2023-04-26T15:26:22;6.57;;;3.50;;
18780;SDS011;9519;51.890;8.970;2023-04-26T15:31:25;7.97;;;2.73;;
18780;SDS011;9519;51.890;8.970;2023-04-26T15:36:29;6.87;;;2.50;;
18780;SDS011;9519;51.890;8.970;2023-04-26T15:41:31;7.03;;;2.43;;
18780;SDS011;9519;51.890;8.970;2023-04-26T15:46:33;7.20;;;2.30;;
18780;SDS011;9519;51.890;8.970;2023-04-26T15:51:36;8.37;;;3.23;;
18780;SDS011;9519;51.890;8.970;2023-04-26T15:56:38;6.43;;;2.90;;
18780;SDS011;9519;51.890;8.970;2023-04-26T16:01:41;6.37;;;3.83;;
18780;SDS011;9519;51.890;8.970;2023-04-26T16:06:45;7.23;;;3.90;;
18780;SDS011;9519;51.890;8.970;2023-04-26T16:11:48;6.93;;;3.20;;
18780;SDS011;9519;51.890;8.970;2023-04-26T16:16:50;9.87;;;3.03;;
18780;SDS011;9519;51.890;8.970;2023-04-26T16:21:54;7.20;;;3.03;;
18780;SDS011;9519;51.890;8.970;2023-04-26T16:26:56;6.93;;;3.50;;
18780;SDS011;9519;51.890;8.970;2023-04-26T16:31:58;15.77;;;6.73;;
18780;SDS011;9519;51.890;8.970;2023-04-26T16:37:02;7.43;;;3.60;;
18780;SDS011;9519;51.890;8.970;2023-04-26T16:42:04;10.80;;;4.47;;
18780;SDS011;9519;51.890;8.970;2023-04-26T16:47:06;10.17;;;3.93;;
18780;SDS011;9519;51.890;8.970;2023-04-26T16:52:10;7.73;;;3.70;;
18780;SDS011;9519;51.890;8.970;2023-04-26T16:57:12;7.70;;;3.87;;
18780;SDS011;9519;51.890;8.970;2023-04-26T17:02:14;9.57;;;4.57;;
18780;SDS011;9519;51.890;8.970;2023-04-26T17:07:18;7.60;;;3.50;;
18780;SDS011;9519;51.890;8.970;2023-04-26T17:12:21;6.20;;;3.47;;
18780;SDS011;9519;51.890;8.970;2023-04-26T17:17:23;8.40;;;3.50;;
18780;SDS011;9519;51.890;8.970;2023-04-26T17:22:26;8.13;;;5.10;;
18780;SDS011;9519;51.890;8.970;2023-04-26T17:27:28;8.30;;;3.93;;
18780;SDS011;9519;51.890;8.970;2023-04-26T17:32:30;7.67;;;3.57;;
18780;SDS011;9519;51.890;8.970;2023-04-26T17:37:34;12.20;;;8.00;;
18780;SDS011;9519;51.890;8.970;2023-04-26T17:42:36;8.87;;;5.80;;
18780;SDS011;9519;51.890;8.970;2023-04-26T17:47:38;7.90;;;3.80;;
18780;SDS011;9519;51.890;8.970;2023-04-26T17:52:44;7.67;;;3.87;;
18780;SDS011;9519;51.890;8.970;2023-04-26T17:57:46;9.50;;;4.93;;
18780;SDS011;9519;51.890;8.970;2023-04-26T18:02:48;11.00;;;3.90;;
18780;SDS011;9519;51.890;8.970;2023-04-26T18:07:54;7.97;;;3.23;;
18780;SDS011;9519;51.890;8.970;2023-04-26T18:12:56;6.87;;;3.67;;
18780;SDS011;9519;51.890;8.970;2023-04-26T18:17:58;7.37;;;3.90;;
18780;SDS011;9519;51.890;8.970;2023-04-26T18:23:05;7.17;;;3.50;;
18780;SDS011;9519;51.890;8.970;2023-04-26T18:28:07;7.17;;;3.70;;
18780;SDS011;9519;51.890;8.970;2023-04-26T18:33:10;8.77;;;4.50;;
18780;SDS011;9519;51.890;8.970;2023-04-26T18:38:13;9.20;;;3.60;;
18780;SDS011;9519;51.890;8.970;2023-04-26T18:43:16;6.57;;;3.40;;
18780;SDS011;9519;51.890;8.970;2023-04-26T18:48:18;5.83;;;3.40;;
18780;SDS011;9519;51.890;8.970;2023-04-26T18:53:21;8.00;;;4.43;;
18780;SDS011;9519;51.890;8.970;2023-04-26T18:58:23;9.63;;;4.87;;
18780;SDS011;9519;51.890;8.970;2023-04-26T19:03:25;8.70;;;5.37;;
18780;SDS011;9519;51.890;8.970;2023-04-26T19:08:29;10.47;;;4.47;;
18780;SDS011;9519;51.890;8.970;2023-04-26T19:13:31;6.57;;;4.23;;
18780;SDS011;9519;51.890;8.970;2023-04-26T19:18:33;7.37;;;4.30;;
18780;SDS011;9519;51.890;8.970;2023-04-26T19:23:37;7.17;;;4.67;;
18780;SDS011;9519;51.890;8.970;2023-04-26T19:28:39;11.27;;;4.50;;
18780;SDS011;9519;51.890;8.970;2023-04-26T19:33:41;7.60;;;4.60;;
18780;SDS011;9519;51.890;8.970;2023-04-26T19:38:46;10.73;;;5.23;;
18780;SDS011;9519;51.890;8.970;2023-04-26T19:43:48;6.83;;;4.63;;
18780;SDS011;9519;51.890;8.970;2023-04-26T19:48:50;9.33;;;5.17;;
18780;SDS011;9519;51.890;8.970;2023-04-26T19:53:54;9.17;;;5.77;;
18780;SDS011;9519;51.890;8.970;2023-04-26T19:58:56;14.13;;;5.63;;
18780;SDS011;9519;51.890;8.970;2023-04-26T20:03:58;8.70;;;5.03;;
18780;SDS011;9519;51.890;8.970;2023-04-26T20:09:02;8.90;;;5.30;;
18780;SDS011;9519;51.890;8.970;2023-04-26T20:14:05;9.23;;;5.13;;
18780;SDS011;9519;51.890;8.970;2023-04-26T20:19:07;10.07;;;4.93;;
18780;SDS011;9519;51.890;8.970;2023-04-26T20:24:11;9.47;;;4.67;;
18780;SDS011;9519;51.890;8.970;2023-04-26T20:29:14;8.07;;;4.73;;
18780;SDS011;9519;51.890;8.970;2023-04-26T20:34:16;10.60;;;5.40;;
18780;SDS011;9519;51.890;8.970;2023-04-26T20:39:19;7.73;;;5.10;;
18780;SDS011;9519;51.890;8.970;2023-04-26T20:44:22;11.33;;;4.90;;
18780;SDS011;9519;51.890;8.970;2023-04-26T20:49:24;9.37;;;5.83;;
18780;SDS011;9519;51.890;8.970;2023-04-26T20:54:28;7.07;;;4.70;;
18780;SDS011;9519;51.890;8.970;2023-04-26T20:59:30;8.57;;;5.17;;
18780;SDS011;9519;51.890;8.970;2023-04-26T21:04:33;12.00;;;6.00;;
18780;SDS011;9519;51.890;8.970;2023-04-26T21:09:39;12.83;;;5.93;;
18780;SDS011;9519;51.890;8.970;2023-04-26T21:14:41;10.70;;;6.27;;
18780;SDS011;9519;51.890;8.970;2023-04-26T21:19:44;10.47;;;5.70;;
18780;SDS011;9519;51.890;8.970;2023-04-26T21:24:50;9.67;;;6.30;;
18780;SDS011;9519;51.890;8.970;2023-04-26T21:29:52;13.27;;;6.90;;
18780;SDS011;9519;51.890;8.970;2023-04-26T21:34:54;10.90;;;6.43;;
18780;SDS011;9519;51.890;8.970;2023-04-26T21:39:58;11.47;;;6.43;;
18780;SDS011;9519;51.890;8.970;2023-04-26T21:45:00;9.50;;;5.53;;
18780;SDS011;9519;51.890;8.970;2023-04-26T21:50:02;9.07;;;5.97;;
18780;SDS011;9519;51.890;8.970;2023-04-26T21:55:08;11.87;;;6.27;;
18780;SDS011;9519;51.890;8.970;2023-04-26T22:00:10;9.40;;;6.23;;
18780;SDS011;9519;51.890;8.970;2023-04-26T22:05:13;12.23;;;6.40;;
18780;SDS011;9519;51.890;8.970;2023-04-26T22:10:17;11.93;;;6.97;;
18780;SDS011;9519;51.890;8.970;2023-04-26T22:15:19;11.80;;;6.90;;
18780;SDS011;9519;51.890;8.970;2023-04-26T22:20:21;12.43;;;7.17;;
18780;SDS011;9519;51.890;8.970;2023-04-26T22:25:25;10.73;;;6.70;;
18780;SDS011;9519;51.890;8.970;2023-04-26T22:30:27;11.27;;;6.20;;
18780;SDS011;9519;51.890;8.970;2023-04-26T22:35:29;13.80;;;6.10;;
18780;SDS011;9519;51.890;8.970;2023-04-26T22:40:33;12.13;;;6.53;;
18780;SDS011;9519;51.890;8.970;2023-04-26T22:45:35;9.70;;;6.10;;
18780;SDS011;9519;51.890;8.970;2023-04-26T22:50:37;11.97;;;6.70;;
18780;SDS011;9519;51.890;8.970;2023-04-26T22:55:41;14.07;;;7.70;;
18780;SDS011;9519;51.890;8.970;2023-04-26T23:00:43;11.63;;;6.37;;
18780;SDS011;9519;51.890;8.970;2023-04-26T23:05:45;14.40;;;6.50;;
18780;SDS011;9519;51.890;8.970;2023-04-26T23:10:48;12.10;;;6.53;;
18780;SDS011;9519;51.890;8.970;2023-04-26T23:15:51;13.10;;;6.37;;
18780;SDS011;9519;51.890;8.970;2023-04-26T23:20:53;9.33;;;6.10;;
18780;SDS011;9519;51.890;8.970;2023-04-26T23:25:56;9.57;;;6.20;;
18780;SDS011;9519;51.890;8.970;2023-04-26T23:30:58;11.73;;;6.77;;
18780;SDS011;9519;51.890;8.970;2023-04-26T23:36:00;12.23;;;5.73;;
18780;SDS011;9519;51.890;8.970;2023-04-26T23:41:04;14.07;;;5.67;;
18780;SDS011;9519;51.890;8.970;2023-04-26T23:46:06;10.40;;;6.63;;
18780;SDS011;9519;51.890;8.970;2023-04-26T23:51:08;12.10;;;6.37;;
18780;SDS011;9519;51.890;8.970;2023-04-26T23:56:12;11.47;;;6.33;;
